createdAt,value
2022-11-09T00:00:42.722Z,1.30
2022-11-09T00:03:11.738Z,1.20
2022-11-09T00:05:41.694Z,1.27
2022-11-09T00:08:11.075Z,1.07
2022-11-09T00:10:39.504Z,1.07
2022-11-09T00:13:07.189Z,1.10
2022-11-09T00:15:37.930Z,1.20
2022-11-09T00:18:05.704Z,1.17
2022-11-09T00:20:33.822Z,1.30
2022-11-09T00:23:02.883Z,1.47
2022-11-09T00:25:30.519Z,1.20
2022-11-09T00:27:58.438Z,1.40
2022-11-09T00:30:26.860Z,1.20
2022-11-09T00:32:54.566Z,0.90
2022-11-09T00:35:22.284Z,1.10
2022-11-09T00:37:51.397Z,1.00
2022-11-09T00:40:20.472Z,1.10
2022-11-09T00:42:48.216Z,1.00
2022-11-09T00:45:15.999Z,1.53
2022-11-09T00:47:43.858Z,1.50
2022-11-09T00:50:11.730Z,1.30
2022-11-09T00:52:39.479Z,1.20
2022-11-09T00:55:07.576Z,0.90
2022-11-09T00:57:36.646Z,1.10
2022-11-09T01:00:05.559Z,1.27
2022-11-09T01:02:33.326Z,1.20
2022-11-09T01:05:02.190Z,1.10
2022-11-09T01:07:29.946Z,1.40
2022-11-09T01:09:57.632Z,1.00
2022-11-09T01:12:25.538Z,1.40
2022-11-09T01:14:54.580Z,1.20
2022-11-09T01:17:22.525Z,1.20
2022-11-09T01:19:50.397Z,0.90
2022-11-09T01:22:18.981Z,1.30
2022-11-09T01:24:47.390Z,1.80
2022-11-09T01:27:15.288Z,1.17
2022-11-09T01:29:42.996Z,0.93
2022-11-09T01:32:12.034Z,1.37
2022-11-09T01:34:40.587Z,1.33
2022-11-09T01:37:08.294Z,1.13
2022-11-09T01:39:36.003Z,1.47
2022-11-09T01:42:03.729Z,1.30
2022-11-09T01:44:32.120Z,1.27
2022-11-09T01:47:03.138Z,1.30
2022-11-09T01:49:41.802Z,1.00
2022-11-09T01:52:13.805Z,1.23
2022-11-09T01:54:44.932Z,1.57
2022-11-09T01:57:19.097Z,1.20
2022-11-09T01:59:51.831Z,1.30
2022-11-09T02:02:19.890Z,1.33
2022-11-09T02:04:52.933Z,1.30
2022-11-09T02:07:22.568Z,1.30
2022-11-09T02:09:55.795Z,1.10
2022-11-09T02:12:25.291Z,1.10
2022-11-09T02:14:54.580Z,1.23
2022-11-09T02:17:22.954Z,1.10
2022-11-09T02:19:52.021Z,1.10
2022-11-09T02:22:21.130Z,1.20
2022-11-09T02:24:52.802Z,1.20
2022-11-09T02:27:23.079Z,1.50
2022-11-09T02:29:51.177Z,1.30
2022-11-09T02:32:22.198Z,0.90
2022-11-09T02:34:49.876Z,1.03
2022-11-09T02:37:28.008Z,1.30
2022-11-09T02:39:58.537Z,1.17
2022-11-09T02:42:26.355Z,1.13
2022-11-09T02:44:57.744Z,1.17
2022-11-09T02:47:25.707Z,1.13
2022-11-09T02:49:53.482Z,1.13
2022-11-09T02:52:21.251Z,1.20
2022-11-09T02:54:50.339Z,1.13
2022-11-09T02:57:18.068Z,1.20
2022-11-09T02:59:45.773Z,1.23
2022-11-09T03:02:13.575Z,1.30
2022-11-09T03:04:41.363Z,1.03
2022-11-09T03:07:09.624Z,1.10
2022-11-09T03:09:37.451Z,0.93
2022-11-09T03:12:21.038Z,1.43
2022-11-09T03:14:48.728Z,0.80
2022-11-09T03:17:17.568Z,0.93
2022-11-09T03:19:45.350Z,1.10
2022-11-09T03:22:13.018Z,1.33
2022-11-09T03:24:40.764Z,1.30
2022-11-09T03:27:09.906Z,1.07
2022-11-09T03:29:37.773Z,1.50
2022-11-09T03:32:06.636Z,0.77
2022-11-09T03:34:34.416Z,1.53
2022-11-09T03:37:02.118Z,1.20
2022-11-09T03:39:29.784Z,0.83
2022-11-09T03:41:57.612Z,0.93
2022-11-09T03:44:26.645Z,1.07
2022-11-09T03:46:54.447Z,1.20
2022-11-09T03:49:23.793Z,1.10
2022-11-09T03:51:51.696Z,1.00
2022-11-09T03:54:19.524Z,1.00
2022-11-09T03:56:47.255Z,0.77
2022-11-09T03:59:14.956Z,0.90
2022-11-09T04:01:44.086Z,0.93
2022-11-09T04:04:12.231Z,1.03
2022-11-09T04:06:40.048Z,1.07
2022-11-09T04:09:07.839Z,1.07
2022-11-09T04:11:35.505Z,1.20
2022-11-09T04:14:03.221Z,1.13
2022-11-09T04:16:31.134Z,1.30
2022-11-09T04:19:00.358Z,1.10
2022-11-09T04:21:28.072Z,1.07
2022-11-09T04:23:55.759Z,0.90
2022-11-09T04:26:23.476Z,0.80
2022-11-09T04:28:51.185Z,0.87
2022-11-09T04:31:18.859Z,1.30
2022-11-09T04:33:50.846Z,0.90
2022-11-09T04:36:20.014Z,0.87
2022-11-09T04:38:47.695Z,0.97
2022-11-09T04:41:15.462Z,0.93
2022-11-09T04:43:43.478Z,1.10
2022-11-09T04:46:11.306Z,1.20
2022-11-09T04:48:39.094Z,1.20
2022-11-09T04:51:10.438Z,1.27
2022-11-09T04:53:40.574Z,1.20
2022-11-09T04:56:09.313Z,1.07
2022-11-09T04:58:36.998Z,1.20
2022-11-09T05:01:05.813Z,1.00
2022-11-09T05:03:33.696Z,1.57
2022-11-09T05:06:01.468Z,0.80
2022-11-09T05:08:29.172Z,1.20
2022-11-09T05:10:58.925Z,1.00
2022-11-09T05:13:26.642Z,0.87
2022-11-09T05:15:54.364Z,1.00
2022-11-09T05:18:22.086Z,1.00
2022-11-09T05:20:49.770Z,1.20
2022-11-09T05:23:35.134Z,1.20
2022-11-09T05:26:04.198Z,1.40
2022-11-09T05:28:31.899Z,1.40
2022-11-09T05:30:59.636Z,0.80
2022-11-09T05:33:27.337Z,0.73
2022-11-09T05:35:57.035Z,1.13
2022-11-09T05:38:25.568Z,1.20
2022-11-09T05:40:53.982Z,1.10
2022-11-09T05:43:23.472Z,1.23
2022-11-09T05:45:51.326Z,1.00
2022-11-09T05:48:19.690Z,1.20
2022-11-09T05:50:48.761Z,1.20
2022-11-09T05:53:16.648Z,1.30
2022-11-09T05:55:44.508Z,0.90
2022-11-09T05:58:12.515Z,1.43
2022-11-09T06:00:41.680Z,0.93
2022-11-09T06:03:11.106Z,1.10
2022-11-09T06:05:40.736Z,0.90
2022-11-09T06:08:11.059Z,1.13
2022-11-09T06:10:38.949Z,1.10
2022-11-09T06:13:06.702Z,1.27
2022-11-09T06:15:34.462Z,1.33
2022-11-09T06:18:03.623Z,1.33
2022-11-09T06:20:33.101Z,1.20
2022-11-09T06:23:03.850Z,1.23
2022-11-09T06:25:33.221Z,1.23
2022-11-09T06:28:01.843Z,1.30
2022-11-09T06:30:30.148Z,1.07
2022-11-09T06:33:01.156Z,1.20
2022-11-09T06:35:30.830Z,1.13
2022-11-09T06:38:00.506Z,1.17
2022-11-09T06:40:29.370Z,1.53
2022-11-09T06:42:59.214Z,1.47
2022-11-09T06:45:28.623Z,1.23
2022-11-09T06:47:57.038Z,1.10
2022-11-09T06:50:24.966Z,1.30
2022-11-09T06:52:57.207Z,1.37
2022-11-09T06:55:24.923Z,1.20
2022-11-09T06:57:52.611Z,1.30
2022-11-09T07:00:21.713Z,1.40
2022-11-09T07:02:49.437Z,1.03
2022-11-09T07:05:17.401Z,1.50
2022-11-09T07:07:45.178Z,1.10
2022-11-09T07:10:14.506Z,1.47
2022-11-09T07:12:42.364Z,1.30
2022-11-09T07:15:11.523Z,1.40
2022-11-09T07:17:40.213Z,1.50
2022-11-09T07:20:09.857Z,1.20
2022-11-09T07:22:39.520Z,1.17
2022-11-09T07:25:08.314Z,1.20
2022-11-09T07:27:37.421Z,1.10
2022-11-09T07:30:05.912Z,1.20
2022-11-09T07:35:22.246Z,1.70
2022-11-09T07:37:49.909Z,1.30
2022-11-09T07:40:17.861Z,1.20
2022-11-09T07:43:03.999Z,1.03
2022-11-09T07:45:33.151Z,1.37
2022-11-09T07:48:02.489Z,1.27
2022-11-09T07:50:31.978Z,1.40
2022-11-09T07:53:01.358Z,0.93
2022-11-09T07:55:30.596Z,1.30
2022-11-09T07:58:01.542Z,1.20
2022-11-09T08:00:31.554Z,1.40
2022-11-09T08:02:59.621Z,1.30
2022-11-09T08:05:27.607Z,1.20
2022-11-09T08:07:56.999Z,1.17
2022-11-09T08:10:25.167Z,1.53
2022-11-09T08:12:57.013Z,1.13
2022-11-09T08:15:26.783Z,1.13
2022-11-09T08:17:54.856Z,1.17
2022-11-09T08:20:22.725Z,1.00
2022-11-09T08:22:50.455Z,1.43
2022-11-09T08:25:18.649Z,1.53
2022-11-09T08:27:46.376Z,1.70
2022-11-09T08:30:17.401Z,1.40
2022-11-09T08:32:46.687Z,1.10
2022-11-09T08:35:17.834Z,1.33
2022-11-09T08:37:46.928Z,1.40
2022-11-09T08:40:16.614Z,1.30
2022-11-09T08:42:44.533Z,1.10
2022-11-09T08:45:12.852Z,1.40
2022-11-09T08:47:40.700Z,1.27
2022-11-09T08:50:11.557Z,1.30
2022-11-09T08:52:39.478Z,1.40
2022-11-09T08:55:08.523Z,1.40
2022-11-09T08:57:36.525Z,1.20
2022-11-09T09:00:05.921Z,0.97
2022-11-09T09:02:33.916Z,1.07
2022-11-09T09:05:01.645Z,1.27
2022-11-09T09:07:30.740Z,1.20
2022-11-09T09:09:58.716Z,1.20
2022-11-09T09:12:26.690Z,1.33
2022-11-09T09:14:55.383Z,1.40
2022-11-09T09:17:23.115Z,1.40
2022-11-09T09:19:50.851Z,1.30
2022-11-09T09:22:19.785Z,1.53
2022-11-09T09:24:49.194Z,1.30
2022-11-09T09:27:16.962Z,1.03
2022-11-09T09:29:44.673Z,1.43
2022-11-09T09:32:12.345Z,1.37
2022-11-09T09:34:40.134Z,1.13
2022-11-09T09:37:07.870Z,1.10
2022-11-09T09:39:35.922Z,1.23
2022-11-09T09:42:08.732Z,1.00
2022-11-09T09:44:44.429Z,1.30
2022-11-09T09:47:14.725Z,1.43
2022-11-09T09:49:45.811Z,1.57
2022-11-09T09:52:21.245Z,1.20
2022-11-09T09:55:06.218Z,1.17
2022-11-09T09:57:41.561Z,1.10
2022-11-09T10:00:20.046Z,1.10
2022-11-09T10:02:48.133Z,1.30
2022-11-09T10:05:17.418Z,1.50
2022-11-09T10:07:52.485Z,1.20
2022-11-09T10:10:33.069Z,1.57
2022-11-09T10:13:22.796Z,1.17
2022-11-09T10:15:56.263Z,1.03
2022-11-09T10:18:35.755Z,1.20
2022-11-09T10:21:15.802Z,1.40
2022-11-09T10:23:55.050Z,1.10
2022-11-09T10:26:29.557Z,1.20
2022-11-09T10:29:16.198Z,0.80
2022-11-09T10:31:46.943Z,1.30
2022-11-09T10:34:19.978Z,1.23
2022-11-09T10:36:55.115Z,1.30
2022-11-09T10:39:25.511Z,1.10
2022-11-09T10:41:53.377Z,1.40
2022-11-09T10:44:22.571Z,1.10
2022-11-09T10:47:05.092Z,1.10
2022-11-09T10:49:33.892Z,1.40
2022-11-09T10:52:02.425Z,1.43
2022-11-09T10:54:33.724Z,1.60
2022-11-09T10:57:12.114Z,0.90
2022-11-09T10:59:51.388Z,0.90
2022-11-09T11:02:42.107Z,1.53
2022-11-09T11:05:32.031Z,0.80
2022-11-09T11:08:20.198Z,1.00
2022-11-09T11:10:48.110Z,1.20
2022-11-09T11:13:26.343Z,0.83
2022-11-09T11:15:55.662Z,0.67
2022-11-09T11:18:25.937Z,0.60
2022-11-09T11:21:18.442Z,0.90
2022-11-09T11:24:11.832Z,0.77
2022-11-09T11:26:45.609Z,0.77
2022-11-09T11:29:44.679Z,0.90
2022-11-09T11:32:17.678Z,1.10
2022-11-09T11:34:59.809Z,0.87
2022-11-09T11:37:42.912Z,0.73
2022-11-09T11:40:20.671Z,0.87
2022-11-09T11:43:07.258Z,1.00
2022-11-09T11:45:42.497Z,1.00
2022-11-09T11:48:26.244Z,1.00
2022-11-09T11:51:00.270Z,1.03
2022-11-09T11:53:43.675Z,1.40
2022-11-09T11:56:23.401Z,1.10
2022-11-09T11:59:15.525Z,0.80
2022-11-09T12:01:55.313Z,0.90
2022-11-09T12:04:41.631Z,0.90
2022-11-09T12:07:22.039Z,1.10
2022-11-09T12:10:03.218Z,1.07
2022-11-09T12:12:42.027Z,1.00
2022-11-09T12:15:28.890Z,0.80
2022-11-09T12:18:05.043Z,1.07
2022-11-09T12:20:40.357Z,1.60
2022-11-09T12:23:22.206Z,1.30
2022-11-09T12:26:01.678Z,0.90
2022-11-09T12:28:54.842Z,0.80
2022-11-09T12:31:37.798Z,1.13
2022-11-09T12:34:16.310Z,1.00
2022-11-09T12:36:50.633Z,0.77
2022-11-09T12:39:24.581Z,0.83
2022-11-09T12:41:55.808Z,0.60
2022-11-09T12:44:28.399Z,0.87
2022-11-09T12:47:02.693Z,0.70
2022-11-09T12:49:36.723Z,1.07
2022-11-09T12:52:07.788Z,0.63
2022-11-09T12:54:36.865Z,1.17
2022-11-09T12:57:07.846Z,0.87
2022-11-09T12:59:37.998Z,0.70
2022-11-09T13:02:06.977Z,0.60
2022-11-09T13:04:34.704Z,0.80
2022-11-09T13:07:30.632Z,0.53
2022-11-09T13:10:00.904Z,0.63
2022-11-09T13:12:34.898Z,0.80
2022-11-09T13:15:23.965Z,0.57
2022-11-09T13:17:59.350Z,0.73
2022-11-09T13:21:00.275Z,0.80
2022-11-09T13:23:59.081Z,0.80
2022-11-09T13:26:46.105Z,0.73
2022-11-09T13:29:26.413Z,0.80
2022-11-09T13:32:06.836Z,0.60
2022-11-09T13:34:46.239Z,0.70
2022-11-09T13:37:36.326Z,1.00
2022-11-09T13:40:48.248Z,1.07
2022-11-09T13:43:23.366Z,0.77
2022-11-09T13:45:54.605Z,0.60
2022-11-09T13:48:35.932Z,0.83
2022-11-09T13:51:05.706Z,0.70
2022-11-09T13:53:52.892Z,1.10
2022-11-09T13:56:29.623Z,0.80
2022-11-09T13:59:04.044Z,0.70
2022-11-09T14:01:37.909Z,1.00
2022-11-09T14:04:06.434Z,0.93
2022-11-09T14:06:34.670Z,0.83
2022-11-09T14:09:04.183Z,0.80
2022-11-09T14:11:47.640Z,0.80
2022-11-09T14:14:46.446Z,0.80
2022-11-09T14:17:21.245Z,0.90
2022-11-09T14:20:00.204Z,1.17
2022-11-09T14:22:32.596Z,1.00
2022-11-09T14:25:00.467Z,0.90
2022-11-09T14:27:29.560Z,0.97
2022-11-09T14:29:59.281Z,0.80
2022-11-09T14:32:30.564Z,0.90
2022-11-09T14:35:21.623Z,1.20
2022-11-09T14:37:49.827Z,0.90
2022-11-09T14:40:22.761Z,0.80
2022-11-09T14:42:54.517Z,0.90
2022-11-09T14:45:23.238Z,0.63
2022-11-09T14:47:54.698Z,0.80
2022-11-09T14:50:25.077Z,0.70
2022-11-09T14:52:54.737Z,0.80
2022-11-09T14:55:24.366Z,0.53
2022-11-09T14:57:56.137Z,0.80
2022-11-09T15:00:30.931Z,0.70
2022-11-09T15:02:59.000Z,0.93
2022-11-09T15:05:33.492Z,0.67
2022-11-09T15:08:02.271Z,0.80
2022-11-09T15:10:32.633Z,0.50
2022-11-09T15:13:04.408Z,0.73
2022-11-09T15:15:35.121Z,0.60
2022-11-09T15:18:03.700Z,0.50
2022-11-09T15:20:34.781Z,0.77
2022-11-09T15:23:04.579Z,1.00
2022-11-09T15:25:35.712Z,0.70
2022-11-09T15:28:20.184Z,0.70
2022-11-09T15:30:49.805Z,0.67
2022-11-09T15:33:25.215Z,0.63
2022-11-09T15:35:55.781Z,0.60
2022-11-09T15:38:37.265Z,0.40
2022-11-09T15:41:11.384Z,0.60
2022-11-09T15:43:40.817Z,0.60
2022-11-09T15:46:08.712Z,1.10
2022-11-09T15:48:37.989Z,1.00
2022-11-09T15:51:07.971Z,0.70
2022-11-09T15:53:35.729Z,0.60
2022-11-09T15:56:03.588Z,0.60
2022-11-09T15:58:31.582Z,0.67
2022-11-09T16:01:00.839Z,0.90
2022-11-09T16:03:28.643Z,0.53
2022-11-09T16:05:56.337Z,0.70
2022-11-09T16:08:24.213Z,0.70
2022-11-09T16:10:52.201Z,0.70
2022-11-09T16:13:19.872Z,0.77
2022-11-09T16:15:47.773Z,0.70
2022-11-09T16:18:22.813Z,0.80
2022-11-09T16:20:52.293Z,0.80
2022-11-09T16:23:19.989Z,0.73
2022-11-09T16:25:47.669Z,0.90
2022-11-09T16:28:15.507Z,0.80
2022-11-09T16:30:46.730Z,0.80
2022-11-09T16:33:16.093Z,0.60
2022-11-09T16:35:43.971Z,0.80
2022-11-09T16:38:11.920Z,1.00
2022-11-09T16:40:39.741Z,0.70
2022-11-09T16:43:07.532Z,1.10
2022-11-09T16:45:35.302Z,0.70
2022-11-09T16:48:05.839Z,0.80
2022-11-09T16:50:34.950Z,0.80
2022-11-09T16:53:02.618Z,0.73
2022-11-09T16:55:30.305Z,0.87
2022-11-09T16:57:57.981Z,0.80
2022-11-09T17:00:37.658Z,0.80
2022-11-09T17:03:13.433Z,0.90
2022-11-09T17:05:43.319Z,0.90
2022-11-09T17:08:12.248Z,1.10
2022-11-09T17:10:42.223Z,0.90
2022-11-09T17:13:10.481Z,1.13
2022-11-09T17:15:41.362Z,1.10
2022-11-09T17:18:10.113Z,1.20
2022-11-09T17:20:43.930Z,1.10
2022-11-09T17:23:12.177Z,1.10
2022-11-09T17:25:40.384Z,1.10
2022-11-09T17:28:09.177Z,1.30
2022-11-09T17:30:41.722Z,1.00
2022-11-09T17:33:09.477Z,1.20
2022-11-09T17:35:37.142Z,1.37
2022-11-09T17:38:06.239Z,1.10
2022-11-09T17:40:33.926Z,1.00
2022-11-09T17:43:02.201Z,1.00
2022-11-09T17:45:29.864Z,0.87
2022-11-09T17:47:59.089Z,0.97
2022-11-09T17:50:27.149Z,1.27
2022-11-09T17:52:54.945Z,0.50
2022-11-09T17:55:24.469Z,1.07
2022-11-09T17:57:52.218Z,1.00
2022-11-09T18:00:20.628Z,0.80
2022-11-09T18:02:48.342Z,0.93
2022-11-09T18:05:16.551Z,0.73
2022-11-09T18:07:44.713Z,1.20
2022-11-09T18:10:12.432Z,0.90
2022-11-09T18:12:41.670Z,1.00
2022-11-09T18:15:10.073Z,1.13
2022-11-09T18:17:38.689Z,1.00
2022-11-09T18:20:09.275Z,1.20
2022-11-09T18:22:38.174Z,0.90
2022-11-09T18:25:08.807Z,1.37
2022-11-09T18:27:38.336Z,1.67
2022-11-09T18:30:17.949Z,1.07
2022-11-09T18:32:55.561Z,1.00
2022-11-09T18:35:28.749Z,1.10
2022-11-09T18:37:58.705Z,1.50
2022-11-09T18:40:28.834Z,1.10
2022-11-09T18:43:00.286Z,1.30
2022-11-09T18:45:30.319Z,1.50
2022-11-09T18:47:58.491Z,1.00
2022-11-09T18:50:28.683Z,0.90
2022-11-09T18:52:58.433Z,1.17
2022-11-09T18:55:28.330Z,1.30
2022-11-09T18:57:57.006Z,1.50
2022-11-09T19:00:30.004Z,1.40
2022-11-09T19:02:58.700Z,1.40
2022-11-09T19:05:28.474Z,1.27
2022-11-09T19:07:56.223Z,1.13
2022-11-09T19:10:35.986Z,1.47
2022-11-09T19:13:08.607Z,1.40
2022-11-09T19:15:47.237Z,1.87
2022-11-09T19:18:18.803Z,2.07
2022-11-09T19:20:50.126Z,1.13
2022-11-09T19:23:18.592Z,1.00
2022-11-09T19:25:49.684Z,1.33
2022-11-09T19:28:19.331Z,1.30
2022-11-09T19:30:50.102Z,1.40
2022-11-09T19:33:18.594Z,1.20
2022-11-09T19:36:27.975Z,1.33
2022-11-09T19:38:49.216Z,1.40
2022-11-09T19:41:18.770Z,1.10
2022-11-09T19:43:52.173Z,1.30
2022-11-09T19:46:24.119Z,1.47
2022-11-09T19:49:02.029Z,1.00
2022-11-09T19:51:39.911Z,1.43
2022-11-09T19:54:08.409Z,1.50
2022-11-09T19:56:38.031Z,1.20
2022-11-09T19:59:17.393Z,1.33
2022-11-09T20:01:48.835Z,1.20
2022-11-09T20:04:17.980Z,1.80
2022-11-09T20:06:49.999Z,2.27
2022-11-09T20:09:20.830Z,1.87
2022-11-09T20:12:09.158Z,1.43
2022-11-09T20:14:39.059Z,1.33
2022-11-09T20:17:08.857Z,1.50
2022-11-09T20:19:38.792Z,1.43
2022-11-09T20:22:08.956Z,1.20
2022-11-09T20:24:47.488Z,1.27
2022-11-09T20:27:18.444Z,1.40
2022-11-09T20:29:49.200Z,1.30
2022-11-09T20:32:21.726Z,1.50
2022-11-09T20:34:50.802Z,1.97
2022-11-09T20:37:19.582Z,1.43
2022-11-09T20:40:00.368Z,1.43
2022-11-09T20:42:29.192Z,1.33
2022-11-09T20:45:00.995Z,0.90
2022-11-09T20:47:57.190Z,1.60
2022-11-09T20:50:18.330Z,1.70
2022-11-09T20:52:48.780Z,1.87
2022-11-09T20:55:20.971Z,1.40
2022-11-09T20:57:56.526Z,1.50
2022-11-09T21:00:29.301Z,1.53
2022-11-09T21:03:06.942Z,1.87
2022-11-09T21:05:38.841Z,1.50
2022-11-09T21:08:08.928Z,1.53
2022-11-09T21:10:40.073Z,1.67
2022-11-09T21:13:08.699Z,1.40
2022-11-09T21:15:38.756Z,1.90
2022-11-09T21:18:10.610Z,1.60
2022-11-09T21:20:39.487Z,1.60
2022-11-09T21:23:38.043Z,1.40
2022-11-09T21:26:27.848Z,1.83
2022-11-09T21:29:17.545Z,1.20
2022-11-09T21:31:45.262Z,1.10
2022-11-09T21:34:18.933Z,0.90
2022-11-09T21:36:53.066Z,1.27
2022-11-09T21:39:20.893Z,1.03
2022-11-09T21:41:49.097Z,1.03
2022-11-09T21:44:19.610Z,1.00
2022-11-09T21:46:49.164Z,1.00
2022-11-09T21:49:30.185Z,1.33
2022-11-09T21:51:59.938Z,1.37
2022-11-09T21:54:29.378Z,1.00
2022-11-09T21:56:57.742Z,1.50
2022-11-09T21:59:27.736Z,1.67
2022-11-09T22:01:58.114Z,1.70
2022-11-09T22:04:29.050Z,1.40
2022-11-09T22:06:57.620Z,1.43
2022-11-09T22:09:45.009Z,1.70
2022-11-09T22:12:37.499Z,1.50
2022-11-09T22:15:29.564Z,1.40
2022-11-09T22:17:58.175Z,2.10
2022-11-09T22:20:49.472Z,2.27
2022-11-09T22:23:19.331Z,1.87
2022-11-09T22:25:48.890Z,1.80
2022-11-09T22:28:20.139Z,2.00
2022-11-09T22:30:49.006Z,1.10
2022-11-09T22:33:24.473Z,1.50
2022-11-09T22:36:04.788Z,1.70
2022-11-09T22:38:36.520Z,1.30
2022-11-09T22:41:10.567Z,1.63
2022-11-09T22:43:40.551Z,1.13
2022-11-09T22:46:11.203Z,1.40
2022-11-09T22:48:39.198Z,1.40
2022-11-09T22:51:19.788Z,1.40
2022-11-09T22:53:50.042Z,1.60
2022-11-09T22:56:19.645Z,2.00
2022-11-09T22:58:49.162Z,1.83
2022-11-09T23:01:23.528Z,1.63
2022-11-09T23:03:59.877Z,1.80
2022-11-09T23:06:30.453Z,1.53
2022-11-09T23:08:59.091Z,1.67
2022-11-09T23:11:28.646Z,1.73
2022-11-09T23:13:59.736Z,1.40
2022-11-09T23:16:30.851Z,1.30
2022-11-09T23:18:58.264Z,1.37
2022-11-09T23:21:31.380Z,1.67
2022-11-09T23:24:00.957Z,1.37
2022-11-09T23:26:37.939Z,1.70
2022-11-09T23:29:09.056Z,1.87
2022-11-09T23:31:39.187Z,1.10
2022-11-09T23:34:10.298Z,1.53
2022-11-09T23:36:46.731Z,1.60
2022-11-09T23:39:18.989Z,1.53
2022-11-09T23:41:48.046Z,1.90
2022-11-09T23:44:20.375Z,1.57
2022-11-09T23:46:48.990Z,1.20
2022-11-09T23:49:18.573Z,1.73
2022-11-09T23:51:49.386Z,1.33
2022-11-09T23:54:22.567Z,1.67
2022-11-09T23:56:50.717Z,1.93
2022-11-09T23:59:19.261Z,1.57
